Time;durP1;ratioP1;P1;durP2;ratioP2;P2;SDS_P1;SDS_P2;PMS_P1;PMS_P2;Temp;Humidity;BMP_temperature;BMP_pressure;BME280_temperature;BME280_humidity;BME280_pressure;Samples;Min_cycle;Max_cycle;Signal;HPM_P1;HPM_P2
2022/08/26 00:00:50;;;;;;;16.00;12.07;;;20.10;99.90;;;;;;5070665;28;20230;-76
2022/08/26 00:03:22;;;;;;;17.35;12.50;;;20.00;99.90;;;;;;5068301;28;20225;-75
2022/08/26 00:05:52;;;;;;;16.15;11.57;;;20.00;99.90;;;;;;5059375;28;20207;-75
2022/08/26 00:08:22;;;;;;;15.60;11.80;;;20.00;99.90;;;;;;5070110;28;20566;-74
2022/08/26 00:10:51;;;;;;;16.23;12.40;;;20.00;99.90;;;;;;5071241;28;20234;-75
2022/08/26 00:13:19;;;;;;;14.07;11.05;;;19.90;99.90;;;;;;5072310;28;20206;-75
2022/08/26 00:15:50;;;;;;;13.52;11.57;;;19.90;99.90;;;;;;5068005;28;20191;-75
2022/08/26 00:18:19;;;;;;;13.00;11.35;;;19.90;99.90;;;;;;5068850;28;20203;-77
2022/08/26 00:20:51;;;;;;;20.98;12.23;;;19.80;99.90;;;;;;5071166;28;20215;-76
2022/08/26 00:23:20;;;;;;;15.23;11.60;;;19.80;99.90;;;;;;5071712;28;20215;-76
2022/08/26 00:25:52;;;;;;;13.57;11.32;;;19.80;99.90;;;;;;5064306;28;20191;-76
2022/08/26 00:28:22;;;;;;;16.17;11.73;;;19.70;99.90;;;;;;5072421;28;20230;-74
2022/08/26 00:30:51;;;;;;;17.70;12.32;;;19.70;99.90;;;;;;5070108;28;20223;-75
2022/08/26 00:33:21;;;;;;;13.77;12.20;;;19.60;99.90;;;;;;5067425;28;20207;-76
2022/08/26 00:35:52;;;;;;;15.15;12.18;;;19.70;99.90;;;;;;5069384;28;20199;-75
2022/08/26 00:38:21;;;;;;;14.65;12.00;;;19.60;99.90;;;;;;5068523;28;20204;-74
2022/08/26 00:40:53;;;;;;;13.93;11.88;;;19.60;99.90;;;;;;5069649;28;20221;-74
2022/08/26 00:43:23;;;;;;;17.00;12.13;;;19.60;99.90;;;;;;5069473;28;20203;-74
2022/08/26 00:45:58;;;;;;;15.88;12.07;;;19.60;99.90;;;;;;5070259;28;20565;-75
2022/08/26 00:48:33;;;;;;;17.20;13.00;;;19.60;99.90;;;;;;5071565;28;20195;-76
2022/08/26 00:51:08;;;;;;;16.13;12.25;;;19.50;99.90;;;;;;5069660;28;20222;-75
2022/08/26 00:53:44;;;;;;;16.33;12.77;;;19.60;99.90;;;;;;5069802;28;20217;-75
2022/08/26 00:56:20;;;;;;;15.38;12.35;;;19.50;99.90;;;;;;5070739;28;20668;-75
2022/08/26 00:58:50;;;;;;;14.82;12.60;;;19.50;99.90;;;;;;5070654;28;20194;-75
2022/08/26 01:01:19;;;;;;;16.23;12.20;;;19.50;99.90;;;;;;5069889;28;20222;-75
2022/08/26 01:03:51;;;;;;;15.65;12.90;;;19.50;99.90;;;;;;5067304;28;20215;-76
2022/08/26 01:06:21;;;;;;;18.00;13.13;;;19.40;99.90;;;;;;5069043;28;20195;-75
2022/08/26 01:08:51;;;;;;;18.20;13.18;;;19.40;99.90;;;;;;5069307;28;20191;-77
2022/08/26 01:11:20;;;;;;;13.95;12.07;;;19.50;99.90;;;;;;5070569;28;20222;-76
2022/08/26 01:13:53;;;;;;;18.80;13.80;;;19.50;99.90;;;;;;5069334;28;20199;-77
2022/08/26 01:16:24;;;;;;;14.13;11.98;;;19.40;99.90;;;;;;5067227;28;20214;-75
2022/08/26 01:18:57;;;;;;;16.95;12.93;;;19.30;99.90;;;;;;5068224;28;20222;-77
2022/08/26 01:21:31;;;;;;;15.95;12.73;;;19.20;99.90;;;;;;5071989;28;20230;-76
2022/08/26 01:24:01;;;;;;;15.77;13.10;;;19.30;99.90;;;;;;5066291;28;20215;-77
2022/08/26 01:26:34;;;;;;;18.63;13.75;;;19.20;99.90;;;;;;5066482;28;20214;-76
2022/08/26 01:29:06;;;;;;;16.67;12.90;;;19.10;99.90;;;;;;5067325;28;20207;-77
2022/08/26 01:31:40;;;;;;;18.52;13.63;;;19.10;99.90;;;;;;5069063;28;20546;-76
2022/08/26 01:34:16;;;;;;;19.02;13.18;;;19.00;99.90;;;;;;5070695;28;20212;-77
2022/08/26 01:36:45;;;;;;;20.45;12.80;;;19.00;99.90;;;;;;5071147;28;20676;-74
2022/08/26 01:39:20;;;;;;;17.75;12.82;;;18.90;99.90;;;;;;5069326;28;20202;-74
2022/08/26 01:41:53;;;;;;;14.07;12.40;;;18.90;99.90;;;;;;5072408;28;20226;-76
2022/08/26 01:44:28;;;;;;;15.20;12.50;;;18.90;99.90;;;;;;5064367;28;20586;-74
2022/08/26 01:46:58;;;;;;;15.55;12.90;;;18.90;99.90;;;;;;5069145;28;20207;-76
2022/08/26 01:49:27;;;;;;;16.60;12.60;;;18.90;99.90;;;;;;5060409;28;20693;-76
2022/08/26 01:52:00;;;;;;;18.90;12.77;;;18.90;99.90;;;;;;5072285;28;20223;-78
2022/08/26 01:54:32;;;;;;;17.60;13.10;;;18.90;99.90;;;;;;5071667;28;20195;-74
2022/08/26 01:57:02;;;;;;;15.60;13.20;;;18.90;99.90;;;;;;5075286;28;20206;-74
2022/08/26 01:59:31;;;;;;;15.82;12.65;;;18.90;99.90;;;;;;5074356;28;20222;-76
2022/08/26 02:02:00;;;;;;;18.27;14.15;;;18.90;99.90;;;;;;5070973;28;20222;-74
2022/08/26 02:04:33;;;;;;;16.52;13.57;;;18.90;99.90;;;;;;5072626;28;20215;-76
2022/08/26 02:07:06;;;;;;;17.95;12.95;;;18.80;99.90;;;;;;5074173;28;20199;-77
2022/08/26 02:09:39;;;;;;;15.90;12.88;;;18.80;99.90;;;;;;5075256;28;20693;-75
2022/08/26 02:12:10;;;;;;;15.20;12.88;;;18.80;99.90;;;;;;5072197;28;20223;-76
2022/08/26 02:14:42;;;;;;;15.13;12.38;;;18.80;99.90;;;;;;5073822;28;20567;-77
2022/08/26 02:17:12;;;;;;;16.50;12.70;;;18.80;99.90;;;;;;5056432;28;20215;-77
2022/08/26 02:19:46;;;;;;;14.30;12.13;;;18.80;99.90;;;;;;5065462;28;20209;-75
2022/08/26 02:22:19;;;;;;;14.07;11.77;;;18.70;99.90;;;;;;5073463;28;20215;-77
2022/08/26 02:24:51;;;;;;;14.52;11.85;;;18.70;99.90;;;;;;5069036;28;20220;-77
2022/08/26 02:27:24;;;;;;;14.82;12.05;;;18.60;99.90;;;;;;5067016;28;20199;-75
2022/08/26 02:29:58;;;;;;;14.32;11.82;;;18.60;99.90;;;;;;5074268;28;20203;-75
2022/08/26 02:32:28;;;;;;;13.93;11.55;;;18.50;99.90;;;;;;5055240;28;20227;-75
2022/08/26 02:34:57;;;;;;;15.88;12.23;;;18.50;99.90;;;;;;5069757;28;20199;-75
2022/08/26 02:37:29;;;;;;;15.07;11.38;;;18.60;99.90;;;;;;5055727;28;20279;-76
2022/08/26 02:40:00;;;;;;;15.35;11.50;;;18.60;99.90;;;;;;5071983;28;20692;-76
2022/08/26 02:42:29;;;;;;;14.18;12.00;;;18.50;99.90;;;;;;5072436;28;20592;-76
2022/08/26 02:44:58;;;;;;;13.25;11.15;;;18.50;99.90;;;;;;5067517;28;20223;-75
2022/08/26 02:47:27;;;;;;;15.63;12.00;;;18.50;99.90;;;;;;5072118;28;20274;-74
2022/08/26 02:49:59;;;;;;;16.85;12.13;;;18.40;99.90;;;;;;5068383;28;20329;-77
2022/08/26 02:52:28;;;;;;;16.80;11.82;;;18.40;99.90;;;;;;5074364;28;20199;-77
2022/08/26 02:54:56;;;;;;;14.88;12.30;;;18.50;99.90;;;;;;5067621;28;20207;-76
2022/08/26 02:57:26;;;;;;;17.52;12.55;;;18.50;99.90;;;;;;5072684;28;20230;-76
2022/08/26 02:59:55;;;;;;;17.30;12.25;;;18.40;99.90;;;;;;5056039;28;20930;-76
2022/08/26 03:02:24;;;;;;;17.27;11.68;;;18.40;99.90;;;;;;5070077;28;20230;-76
2022/08/26 03:04:53;;;;;;;12.85;11.32;;;18.40;99.90;;;;;;5060885;28;20222;-75
2022/08/26 03:07:31;;;;;;;15.77;12.85;;;18.30;99.90;;;;;;5056551;28;20187;-76
2022/08/26 03:09:59;;;;;;;16.13;11.75;;;18.40;99.90;;;;;;5063365;28;20210;-76
2022/08/26 03:12:36;;;;;;;15.60;12.40;;;18.40;99.90;;;;;;5072414;28;20206;-78
2022/08/26 03:15:06;;;;;;;17.83;11.75;;;18.30;99.90;;;;;;5068361;28;20680;-76
2022/08/26 03:17:47;;;;;;;14.75;11.45;;;18.40;99.90;;;;;;5053912;28;20207;-77
2022/08/26 03:20:18;;;;;;;14.43;11.35;;;18.30;99.90;;;;;;5062369;28;20199;-75
2022/08/26 03:22:50;;;;;;;15.57;12.30;;;18.30;99.90;;;;;;5071087;28;20207;-74
2022/08/26 03:25:21;;;;;;;15.55;12.55;;;18.20;99.90;;;;;;5071268;28;20227;-75
2022/08/26 03:27:53;;;;;;;17.88;12.77;;;18.20;99.90;;;;;;5070777;28;20199;-74
2022/08/26 03:30:39;;;;;;;16.73;12.23;;;18.20;99.90;;;;;;5070012;28;20222;-76
2022/08/26 03:33:13;;;;;;;15.88;12.05;;;18.20;99.90;;;;;;5070286;28;20727;-75
2022/08/26 03:35:46;;;;;;;17.48;12.10;;;18.20;99.90;;;;;;5066656;28;20574;-76
2022/08/26 03:38:15;;;;;;;17.42;13.15;;;18.10;99.90;;;;;;5073851;28;20539;-76
2022/08/26 03:40:44;;;;;;;15.80;13.15;;;18.10;99.90;;;;;;5071241;28;20219;-76
2022/08/26 03:43:15;;;;;;;16.33;13.07;;;18.10;99.90;;;;;;5073454;28;20199;-76
2022/08/26 03:45:44;;;;;;;15.20;12.77;;;18.00;99.90;;;;;;5065462;28;20219;-75
2022/08/26 03:48:14;;;;;;;17.33;12.55;;;18.00;99.90;;;;;;5053765;28;20192;-76
2022/08/26 03:50:43;;;;;;;16.80;11.52;;;18.00;99.90;;;;;;5068940;28;20713;-75
2022/08/26 03:53:11;;;;;;;13.98;10.95;;;18.00;99.90;;;;;;5073847;28;20187;-75
2022/08/26 03:55:42;;;;;;;14.65;11.88;;;17.90;99.90;;;;;;5065608;28;20688;-75
2022/08/26 03:58:11;;;;;;;14.35;10.75;;;17.90;99.90;;;;;;5072042;28;20198;-75
2022/08/26 04:00:41;;;;;;;13.80;11.43;;;17.90;99.90;;;;;;5067156;28;20224;-76
2022/08/26 04:03:13;;;;;;;13.75;10.90;;;17.90;99.90;;;;;;5053269;28;20187;-76
2022/08/26 04:05:46;;;;;;;17.98;12.45;;;17.90;99.90;;;;;;5057964;28;20296;-75
2022/08/26 04:08:14;;;;;;;15.73;11.15;;;17.90;99.90;;;;;;5073363;28;20665;-74
2022/08/26 04:10:43;;;;;;;16.13;11.63;;;17.90;99.90;;;;;;5070258;28;20598;-75
2022/08/26 04:13:12;;;;;;;16.33;12.05;;;17.90;99.90;;;;;;5069883;28;20204;-76
2022/08/26 04:15:42;;;;;;;14.60;11.40;;;17.90;99.90;;;;;;5069916;28;20195;-75
2022/08/26 04:18:12;;;;;;;14.25;11.02;;;17.90;99.90;;;;;;5069112;28;20207;-76
2022/08/26 04:20:41;;;;;;;16.20;12.45;;;17.80;99.90;;;;;;5060511;28;20606;-76
2022/08/26 04:23:10;;;;;;;14.75;11.35;;;17.80;99.90;;;;;;5071775;28;20673;-74
2022/08/26 04:25:39;;;;;;;15.35;12.07;;;17.80;99.90;;;;;;5063722;28;20233;-76
2022/08/26 04:28:08;;;;;;;17.30;12.10;;;17.70;99.90;;;;;;5071883;28;20195;-75
2022/08/26 04:30:37;;;;;;;16.98;12.48;;;17.70;99.90;;;;;;5065148;28;20289;-75
2022/08/26 04:33:07;;;;;;;14.30;11.43;;;17.70;99.90;;;;;;5052892;28;20208;-75
2022/08/26 04:35:42;;;;;;;15.25;11.55;;;17.70;99.90;;;;;;5056817;28;20582;-76
2022/08/26 04:38:11;;;;;;;18.20;12.32;;;17.70;99.90;;;;;;5072105;28;20191;-75
2022/08/26 04:40:43;;;;;;;15.50;12.43;;;17.70;99.90;;;;;;5064273;28;20216;-72
2022/08/26 04:43:15;;;;;;;15.63;11.80;;;17.70;99.90;;;;;;5069235;28;20197;-75
2022/08/26 04:45:43;;;;;;;15.10;12.38;;;17.70;99.90;;;;;;5067092;28;20224;-77
2022/08/26 04:48:14;;;;;;;16.08;12.73;;;17.70;99.90;;;;;;5072783;28;20192;-76
2022/08/26 04:50:44;;;;;;;16.90;12.32;;;17.70;99.90;;;;;;5069332;28;20591;-75
2022/08/26 04:53:17;;;;;;;16.13;12.70;;;17.70;99.90;;;;;;5071695;28;20202;-76
2022/08/26 04:55:45;;;;;;;17.33;12.27;;;17.60;99.90;;;;;;5059160;28;20207;-74
2022/08/26 04:58:17;;;;;;;15.68;13.20;;;17.60;99.90;;;;;;5059078;28;20658;-75
2022/08/26 05:00:47;;;;;;;16.70;12.55;;;17.70;99.90;;;;;;5062694;28;20257;-75
2022/08/26 05:03:18;;;;;;;16.27;12.88;;;17.70;99.90;;;;;;5062036;28;20195;-77
2022/08/26 05:05:49;;;;;;;14.02;12.18;;;17.70;99.90;;;;;;5064716;28;20211;-76
2022/08/26 05:08:21;;;;;;;15.55;12.30;;;17.70;99.90;;;;;;5066871;28;20199;-76
2022/08/26 05:10:54;;;;;;;17.80;12.30;;;17.70;99.90;;;;;;5059720;28;20574;-76
2022/08/26 05:13:26;;;;;;;15.25;12.95;;;17.70;99.90;;;;;;5057811;28;20193;-76
2022/08/26 05:15:54;;;;;;;15.50;11.93;;;17.70;99.90;;;;;;5055432;28;20202;-74
2022/08/26 05:18:30;;;;;;;16.13;11.45;;;17.60;99.90;;;;;;5067970;28;20202;-74
2022/08/26 05:20:59;;;;;;;16.48;12.55;;;17.60;99.90;;;;;;5069649;28;20705;-76
2022/08/26 05:23:30;;;;;;;15.93;12.63;;;17.70;99.90;;;;;;5054994;28;20558;-77
2022/08/26 05:26:00;;;;;;;17.40;13.27;;;17.70;99.90;;;;;;5070439;28;20213;-75
2022/08/26 05:28:32;;;;;;;15.63;13.50;;;17.70;99.90;;;;;;5077242;28;20180;-76
2022/08/26 05:31:01;;;;;;;19.55;13.80;;;17.70;99.90;;;;;;5073240;28;20219;-78
2022/08/26 05:33:31;;;;;;;18.15;13.93;;;17.70;99.90;;;;;;5077286;28;20195;-77
2022/08/26 05:36:06;;;;;;;18.33;13.75;;;17.70;99.90;;;;;;5077406;28;20707;-76
2022/08/26 05:38:36;;;;;;;19.00;14.55;;;17.70;99.90;;;;;;5076837;28;20180;-75
2022/08/26 05:41:14;;;;;;;18.42;14.20;;;17.70;99.90;;;;;;5074992;28;20219;-77
2022/08/26 05:43:44;;;;;;;16.55;13.73;;;17.70;99.90;;;;;;5076387;28;20688;-76
2022/08/26 05:46:13;;;;;;;19.02;15.02;;;17.70;99.90;;;;;;5076652;28;20194;-77
2022/08/26 05:48:45;;;;;;;23.20;14.77;;;17.80;99.90;;;;;;5076330;28;20182;-74
2022/08/26 05:51:15;;;;;;;21.25;15.05;;;17.90;99.90;;;;;;5074399;28;20222;-76
2022/08/26 05:53:44;;;;;;;17.73;13.98;;;17.90;99.90;;;;;;5054739;28;20574;-76
2022/08/26 05:56:26;;;;;;;21.40;15.52;;;18.00;99.90;;;;;;5069422;28;20195;-76
2022/08/26 05:58:56;;;;;;;22.75;15.00;;;18.10;99.90;;;;;;5076106;28;20183;-76
2022/08/26 06:01:28;;;;;;;22.48;15.65;;;18.10;99.90;;;;;;5075417;28;20606;-75
2022/08/26 06:04:00;;;;;;;21.13;16.42;;;18.20;99.90;;;;;;5077998;28;20199;-77
2022/08/26 06:06:31;;;;;;;38.97;23.52;;;18.20;99.90;;;;;;5075548;28;20570;-77
2022/08/26 06:09:02;;;;;;;45.97;27.95;;;18.30;99.90;;;;;;5077041;28;20689;-78
2022/08/26 06:11:32;;;;;;;74.15;40.13;;;18.30;99.90;;;;;;5069686;28;20269;-75
2022/08/26 06:14:04;;;;;;;56.83;33.22;;;18.40;99.90;;;;;;5075046;28;20196;-77
2022/08/26 06:16:37;;;;;;;47.78;29.67;;;18.40;99.90;;;;;;5074098;28;20214;-77
2022/08/26 06:19:08;;;;;;;40.30;26.35;;;18.40;99.90;;;;;;5076228;28;20183;-77
2022/08/26 06:21:40;;;;;;;34.15;22.92;;;18.50;99.90;;;;;;5071176;28;20230;-77
2022/08/26 06:27:02;;;;;;;28.42;19.80;;;18.60;99.90;;;;;;5072488;28;20222;-75
2022/08/26 06:29:33;;;;;;;26.70;19.35;;;18.70;99.90;;;;;;5075455;28;20191;-76
2022/08/26 06:32:05;;;;;;;37.55;23.10;;;18.80;99.90;;;;;;5075144;28;20215;-76
2022/08/26 06:34:35;;;;;;;60.85;37.65;;;18.90;99.90;;;;;;5072551;28;20191;-75
2022/08/26 06:37:04;;;;;;;84.60;49.15;;;19.10;99.90;;;;;;5074632;28;20205;-75
2022/08/26 06:39:34;;;;;;;41.67;28.60;;;19.10;99.90;;;;;;5072699;28;20566;-76
2022/08/26 06:42:09;;;;;;;28.25;21.17;;;19.30;99.90;;;;;;5072471;28;20600;-76
2022/08/26 06:44:40;;;;;;;27.50;19.80;;;19.40;99.90;;;;;;5072590;28;20584;-76
2022/08/26 06:47:12;;;;;;;23.50;18.70;;;19.50;99.90;;;;;;5075918;28;20222;-77
2022/08/26 06:49:42;;;;;;;26.20;18.27;;;19.60;99.90;;;;;;5072233;28;20251;-75
2022/08/26 06:52:11;;;;;;;24.08;19.00;;;19.60;99.90;;;;;;5076922;28;20214;-78
2022/08/26 06:54:41;;;;;;;28.77;20.95;;;19.70;99.90;;;;;;5073612;28;20197;-76
2022/08/26 06:57:12;;;;;;;32.47;19.40;;;19.70;99.90;;;;;;5070600;28;20221;-76
2022/08/26 06:59:44;;;;;;;28.88;19.02;;;19.80;99.90;;;;;;5074938;28;20195;-75
2022/08/26 07:02:13;;;;;;;26.48;19.02;;;19.90;99.90;;;;;;5072035;28;20712;-77
2022/08/26 07:04:46;;;;;;;28.17;18.23;;;20.00;99.90;;;;;;5073982;28;20207;-75
2022/08/26 07:07:18;;;;;;;27.42;18.58;;;20.10;99.90;;;;;;5072095;28;20202;-77
2022/08/26 07:09:49;;;;;;;29.50;19.38;;;20.20;99.90;;;;;;5074455;28;20669;-76
2022/08/26 07:12:20;;;;;;;22.67;16.20;;;20.30;99.90;;;;;;5071981;28;20701;-76
2022/08/26 07:14:49;;;;;;;26.30;18.17;;;20.40;99.90;;;;;;5069273;28;20206;-77
2022/08/26 07:17:18;;;;;;;31.05;19.10;;;20.60;99.90;;;;;;5075201;28;20216;-75
2022/08/26 07:19:49;;;;;;;24.83;18.80;;;20.70;99.90;;;;;;5068694;28;20201;-76
2022/08/26 07:22:20;;;;;;;26.65;17.05;;;20.80;99.90;;;;;;5065933;28;20615;-78
2022/08/26 07:24:49;;;;;;;25.75;18.33;;;20.80;99.90;;;;;;5074745;28;20566;-75
2022/08/26 07:27:17;;;;;;;34.10;19.25;;;20.90;99.90;;;;;;5071187;28;20206;-74
2022/08/26 07:29:46;;;;;;;26.95;17.95;;;21.10;99.90;;;;;;5074923;28;20202;-77
2022/08/26 07:32:19;;;;;;;31.60;17.90;;;21.20;99.90;;;;;;5072178;28;20215;-75
2022/08/26 07:34:51;;;;;;;24.42;17.98;;;21.30;99.90;;;;;;5074498;28;20190;-77
2022/08/26 07:37:21;;;;;;;27.70;17.75;;;21.50;99.90;;;;;;5074585;28;20187;-76
2022/08/26 07:39:50;;;;;;;28.25;17.45;;;21.60;99.90;;;;;;5073088;28;20203;-76
2022/08/26 07:42:19;;;;;;;30.10;17.55;;;21.60;99.90;;;;;;5069451;28;20219;-74
2022/08/26 07:44:48;;;;;;;27.15;17.52;;;21.70;99.90;;;;;;5073626;28;20199;-74
2022/08/26 07:47:17;;;;;;;27.77;17.75;;;21.90;99.90;;;;;;5072577;28;20202;-78
2022/08/26 07:49:56;;;;;;;22.73;16.65;;;22.00;99.90;;;;;;5070765;28;20222;-75
2022/08/26 07:52:27;;;;;;;31.10;17.20;;;22.20;99.90;;;;;;5071436;28;20227;-75
2022/08/26 07:54:56;;;;;;;23.35;16.88;;;22.30;99.90;;;;;;5072615;28;20206;-75
2022/08/26 07:57:26;;;;;;;25.65;15.32;;;22.30;99.90;;;;;;5069734;28;20198;-75
2022/08/26 07:59:56;;;;;;;27.83;16.05;;;22.60;99.90;;;;;;5069097;28;20207;-76
2022/08/26 08:02:26;;;;;;;24.70;14.23;;;22.80;99.90;;;;;;5068547;28;20723;-74
2022/08/26 08:04:57;;;;;;;22.92;14.32;;;22.90;99.90;;;;;;5052036;28;20207;-75
2022/08/26 08:07:26;;;;;;;25.73;14.13;;;23.20;99.90;;;;;;5067816;28;20187;-75
2022/08/26 08:10:14;;;;;;;25.15;14.82;;;23.20;99.90;;;;;;5073421;28;20184;-75
2022/08/26 08:12:43;;;;;;;27.23;14.40;;;23.30;99.90;;;;;;5067704;28;20206;-76
2022/08/26 08:15:14;;;;;;;22.42;13.10;;;23.40;99.90;;;;;;5068466;28;20210;-75
2022/08/26 08:17:43;;;;;;;27.60;13.48;;;23.50;99.90;;;;;;5066876;28;20207;-75
2022/08/26 08:20:15;;;;;;;24.27;14.05;;;23.50;99.90;;;;;;5073050;28;20206;-74
2022/08/26 08:22:44;;;;;;;23.58;14.48;;;23.70;99.90;;;;;;5071775;28;20677;-75
2022/08/26 08:25:15;;;;;;;24.90;13.48;;;23.90;99.90;;;;;;5073127;28;20180;-75
2022/08/26 08:27:45;;;;;;;27.60;14.65;;;24.00;99.90;;;;;;5067121;28;20199;-75
2022/08/26 08:30:15;;;;;;;22.70;12.60;;;24.40;99.90;;;;;;5072409;28;20226;-75
2022/08/26 08:32:51;;;;;;;18.63;11.50;;;24.80;99.90;;;;;;5069320;28;20194;-75
2022/08/26 08:35:22;;;;;;;22.25;11.07;;;24.80;99.90;;;;;;5067808;28;20692;-76
2022/08/26 08:37:54;;;;;;;20.38;11.32;;;24.90;99.90;;;;;;5072758;28;20214;-75
2022/08/26 08:40:25;;;;;;;20.23;11.02;;;24.90;99.90;;;;;;5069088;28;20586;-75
2022/08/26 08:43:01;;;;;;;18.85;10.50;;;24.80;99.90;;;;;;5067816;28;20665;-75
2022/08/26 08:45:38;;;;;;;19.58;10.85;;;24.80;99.90;;;;;;5073121;28;20202;-75
2022/08/26 08:48:14;;;;;;;20.25;11.25;;;24.90;99.90;;;;;;5069068;28;20224;-75
2022/08/26 08:50:48;;;;;;;18.92;10.15;;;24.90;99.90;;;;;;5070954;28;20582;-76
2022/08/26 08:53:21;;;;;;;16.55;9.10;;;25.00;99.90;;;;;;5057180;28;20191;-74
2022/08/26 08:56:04;;;;;;;22.60;9.90;;;25.20;99.90;;;;;;5071373;28;20564;-75
2022/08/26 08:58:45;;;;;;;17.30;9.25;;;25.30;99.90;;;;;;5072512;28;20194;-76
2022/08/26 09:01:25;;;;;;;17.95;9.18;;;25.30;99.90;;;;;;5077423;28;20218;-76
2022/08/26 09:04:09;;;;;;;23.58;10.75;;;25.40;99.30;;;;;;5073459;28;20570;-76
2022/08/26 09:06:41;;;;;;;19.45;10.10;;;25.50;99.10;;;;;;5076946;28;20194;-75
2022/08/26 09:09:17;;;;;;;22.88;10.27;;;25.70;98.50;;;;;;5075086;28;20293;-76
2022/08/26 09:11:46;;;;;;;17.73;9.38;;;25.70;97.80;;;;;;5075212;28;20233;-77
2022/08/26 09:14:15;;;;;;;17.98;9.90;;;25.80;98.90;;;;;;5076407;28;20195;-77
2022/08/26 09:16:50;;;;;;;23.73;10.52;;;25.80;99.00;;;;;;5076612;28;20222;-76
2022/08/26 09:19:29;;;;;;;24.33;10.95;;;25.80;98.60;;;;;;5075359;28;20194;-75
2022/08/26 09:22:01;;;;;;;20.05;10.52;;;25.80;98.20;;;;;;5076483;28;20215;-76
2022/08/26 09:24:39;;;;;;;20.33;10.05;;;25.80;98.30;;;;;;5076822;28;20191;-76
2022/08/26 09:27:10;;;;;;;28.77;11.02;;;26.00;97.00;;;;;;5074854;28;20219;-76
2022/08/26 09:29:42;;;;;;;22.15;10.15;;;26.30;96.80;;;;;;5076433;28;20219;-77
2022/08/26 09:32:20;;;;;;;20.48;9.90;;;26.40;97.40;;;;;;5073346;28;20223;-75
2022/08/26 09:34:56;;;;;;;24.58;10.57;;;26.60;97.80;;;;;;5076122;28;20187;-74
2022/08/26 09:37:40;;;;;;;22.75;10.05;;;26.60;97.40;;;;;;5074236;28;20206;-74
2022/08/26 09:40:25;;;;;;;22.35;10.55;;;26.70;97.20;;;;;;5076098;28;20187;-74
2022/08/26 09:43:08;;;;;;;19.35;10.73;;;26.80;95.90;;;;;;5067619;28;20215;-75
2022/08/26 09:45:37;;;;;;;18.95;9.35;;;27.00;95.70;;;;;;5055918;28;20176;-75
2022/08/26 09:48:08;;;;;;;21.00;9.68;;;27.10;97.00;;;;;;5064715;28;20206;-75
2022/08/26 09:50:50;;;;;;;18.13;8.75;;;27.30;95.20;;;;;;5073474;28;20731;-75
2022/08/26 09:53:22;;;;;;;20.08;9.35;;;27.50;94.80;;;;;;5075959;28;20187;-76
2022/08/26 09:56:16;;;;;;;20.10;8.77;;;27.70;93.60;;;;;;5072557;28;20190;-75
2022/08/26 09:58:47;;;;;;;25.58;9.25;;;27.80;93.20;;;;;;5062849;28;20203;-76
2022/08/26 10:01:25;;;;;;;19.42;8.20;;;28.40;91.20;;;;;;5054809;28;20211;-76
2022/08/26 10:04:07;;;;;;;23.25;8.98;;;28.90;90.30;;;;;;5071283;28;20198;-77
2022/08/26 10:06:40;;;;;;;18.58;8.43;;;28.80;91.40;;;;;;5076997;28;20199;-75
2022/08/26 10:09:16;;;;;;;18.85;8.20;;;28.80;90.60;;;;;;5072644;28;20196;-76
2022/08/26 10:11:50;;;;;;;18.20;8.30;;;29.10;90.90;;;;;;5075259;28;20221;-76
2022/08/26 10:14:23;;;;;;;18.05;8.05;;;29.00;91.30;;;;;;5055790;28;20200;-74
2022/08/26 10:16:59;;;;;;;23.42;8.65;;;29.30;86.90;;;;;;5055247;28;20227;-76
2022/08/26 10:19:32;;;;;;;23.38;8.20;;;29.30;87.90;;;;;;5055652;28;20180;-75
2022/08/26 10:22:26;;;;;;;19.88;7.50;;;29.20;89.30;;;;;;5063466;28;20219;-76
2022/08/26 10:25:01;;;;;;;18.45;7.65;;;29.10;89.30;;;;;;5073548;28;20199;-76
2022/08/26 10:27:39;;;;;;;18.35;7.80;;;28.90;87.40;;;;;;5073590;28;20198;-74
2022/08/26 10:30:22;;;;;;;18.77;7.55;;;28.70;88.00;;;;;;5075281;28;20238;-75
2022/08/26 10:32:56;;;;;;;26.38;7.78;;;28.60;86.90;;;;;;5073612;28;20203;-75
2022/08/26 10:35:25;;;;;;;17.77;8.43;;;28.40;89.30;;;;;;5075246;28;20561;-74
2022/08/26 10:38:00;;;;;;;22.85;8.52;;;28.30;90.80;;;;;;5071623;28;20195;-74
2022/08/26 10:40:40;;;;;;;18.77;8.60;;;28.20;89.40;;;;;;5074947;28;20215;-75
2022/08/26 10:43:14;;;;;;;26.17;8.13;;;28.10;90.70;;;;;;5073437;28;20199;-75
2022/08/26 10:45:47;;;;;;;19.13;6.85;;;27.90;89.00;;;;;;5075042;28;20175;-74
2022/08/26 10:48:23;;;;;;;14.70;6.68;;;28.10;88.80;;;;;;5073175;28;20205;-75
2022/08/26 10:50:52;;;;;;;16.63;7.22;;;28.40;88.00;;;;;;5072376;28;20235;-74
2022/08/26 10:53:30;;;;;;;21.35;7.70;;;28.40;89.10;;;;;;5074695;28;20195;-75
2022/08/26 10:56:07;;;;;;;17.70;7.10;;;28.50;88.70;;;;;;5074826;28;20187;-75
2022/08/26 10:58:55;;;;;;;14.63;7.32;;;28.60;90.60;;;;;;5071908;28;20202;-74
2022/08/26 11:01:44;;;;;;;17.00;7.03;;;29.20;84.00;;;;;;5073469;28;20230;-75
2022/08/26 11:04:37;;;;;;;16.35;7.85;;;29.40;86.70;;;;;;5072794;28;20195;-75
2022/08/26 11:07:32;;;;;;;18.15;8.07;;;29.90;84.70;;;;;;5074473;28;20197;-77
2022/08/26 11:10:02;;;;;;;16.33;7.45;;;30.20;81.40;;;;;;5067690;28;20194;-75
2022/08/26 11:16:10;;;;;;;13.20;7.10;;;30.30;80.90;;;;;;5091424;28;20617;-75
2022/08/26 11:18:44;;;;;;;17.90;6.75;;;30.70;79.50;;;;;;5091208;28;20201;-77
2022/08/26 11:22:04;;;;;;;20.98;7.78;;;30.60;77.50;;;;;;5091259;28;20214;-76
2022/08/26 11:25:00;;;;;;;13.63;6.60;;;30.50;79.10;;;;;;5070774;28;20204;-75
2022/08/26 11:27:55;;;;;;;23.25;7.25;;;30.50;77.00;;;;;;5071272;28;20206;-76
2022/08/26 11:30:49;;;;;;;22.17;7.68;;;30.30;78.60;;;;;;5070062;28;20218;-75
2022/08/26 11:33:57;;;;;;;20.75;7.35;;;30.10;79.30;;;;;;5056993;28;20673;-75
2022/08/26 11:36:39;;;;;;;23.08;7.88;;;30.20;81.30;;;;;;5070141;28;20206;-74
2022/08/26 11:39:19;;;;;;;15.63;7.07;;;30.20;77.80;;;;;;5083770;28;20202;-74
2022/08/26 11:41:51;;;;;;;16.20;7.47;;;30.10;78.20;;;;;;5085011;28;20226;-75
2022/08/26 11:44:23;;;;;;;20.90;7.82;;;29.90;82.80;;;;;;5068727;28;20196;-75
2022/08/26 11:46:54;;;;;;;21.05;8.07;;;30.00;79.60;;;;;;5083144;28;20195;-75
2022/08/26 11:49:25;;;;;;;18.52;7.43;;;30.10;77.50;;;;;;5068053;28;20195;-74
2022/08/26 11:52:08;;;;;;;15.35;6.97;;;30.10;78.30;;;;;;5069717;28;20214;-75
2022/08/26 11:54:37;;;;;;;17.10;7.43;;;30.20;77.20;;;;;;5067928;28;20696;-75
2022/08/26 11:57:12;;;;;;;13.00;6.57;;;30.10;78.10;;;;;;5069982;28;20575;-75
2022/08/26 11:59:42;;;;;;;16.77;7.28;;;30.20;77.40;;;;;;5072342;28;20657;-77
2022/08/26 12:02:14;;;;;;;17.83;7.07;;;30.20;78.30;;;;;;5069866;28;20211;-75
2022/08/26 12:04:50;;;;;;;20.92;7.40;;;30.30;77.00;;;;;;5069900;28;20253;-75
2022/08/26 12:07:24;;;;;;;17.73;6.95;;;30.30;79.00;;;;;;5068527;28;20566;-74
2022/08/26 12:09:56;;;;;;;16.63;6.40;;;30.30;81.90;;;;;;5067917;28;20646;-74
2022/08/26 12:12:29;;;;;;;17.42;7.68;;;30.10;79.30;;;;;;5073227;28;20222;-75
2022/08/26 12:15:13;;;;;;;17.27;6.90;;;29.90;83.20;;;;;;5066885;28;20223;-75
2022/08/26 12:17:43;;;;;;;18.92;7.47;;;29.80;79.70;;;;;;5068611;28;20198;-76
2022/08/26 12:20:44;;;;;;;18.65;7.20;;;29.90;78.30;;;;;;5069253;28;20205;-75
2022/08/26 12:23:25;;;;;;;14.98;6.97;;;30.00;77.10;;;;;;5068390;28;20202;-75
2022/08/26 12:26:04;;;;;;;18.23;7.03;;;30.10;75.90;;;;;;5060463;28;20226;-77
2022/08/26 12:28:33;;;;;;;17.90;7.65;;;30.00;76.00;;;;;;5072827;28;20206;-75
2022/08/26 12:31:06;;;;;;;17.58;7.03;;;30.10;77.10;;;;;;5055333;28;20215;-76
2022/08/26 12:33:35;;;;;;;17.75;7.70;;;30.00;76.90;;;;;;5056277;28;20665;-74
2022/08/26 12:36:06;;;;;;;19.95;7.60;;;30.00;76.80;;;;;;5055381;28;20215;-76
2022/08/26 12:38:39;;;;;;;14.82;6.63;;;29.90;77.50;;;;;;5055974;28;20643;-77
2022/08/26 12:41:08;;;;;;;17.27;7.25;;;29.90;77.70;;;;;;5055885;28;20227;-76
2022/08/26 12:43:40;;;;;;;18.98;7.93;;;29.90;77.60;;;;;;5054447;28;20199;-75
2022/08/26 12:46:12;;;;;;;15.82;7.38;;;30.00;77.30;;;;;;5055868;28;20200;-77
2022/08/26 12:48:44;;;;;;;13.73;7.28;;;30.20;76.20;;;;;;5057171;28;20196;-75
2022/08/26 12:51:22;;;;;;;18.50;7.53;;;30.20;77.20;;;;;;5055762;28;20585;-75
2022/08/26 12:53:52;;;;;;;16.95;6.88;;;30.20;76.80;;;;;;5066617;28;20202;-76
2022/08/26 12:56:27;;;;;;;19.80;9.50;;;30.30;76.70;;;;;;5054251;28;20586;-76
2022/08/26 12:59:08;;;;;;;19.67;7.43;;;30.50;74.60;;;;;;5055192;28;20195;-74
2022/08/26 13:01:43;;;;;;;17.88;6.82;;;30.80;76.00;;;;;;5054163;28;20220;-75
2022/08/26 13:04:31;;;;;;;17.10;7.30;;;31.10;74.70;;;;;;5056060;28;20218;-75
2022/08/26 13:07:19;;;;;;;16.83;7.07;;;31.10;73.60;;;;;;5056080;28;20200;-76